createdAt,value
2023-04-25T00:01:17.687Z,82.80
2023-04-25T00:03:44.529Z,82.80
2023-04-25T00:06:11.539Z,83.40
2023-04-25T00:08:38.184Z,84.30
2023-04-25T00:11:05.033Z,85.00
2023-04-25T00:13:31.853Z,84.70
2023-04-25T00:15:59.177Z,84.70
2023-04-25T00:18:25.937Z,84.70
2023-04-25T00:20:52.574Z,84.50
2023-04-25T00:23:19.596Z,84.20
2023-04-25T00:25:47.479Z,83.90
2023-04-25T00:28:14.339Z,83.80
2023-04-25T00:30:41.741Z,83.80
2023-04-25T00:33:09.017Z,83.90
2023-04-25T00:35:35.979Z,83.80
2023-04-25T00:38:02.657Z,83.70
2023-04-25T00:40:29.696Z,83.50
2023-04-25T00:42:56.341Z,83.40
2023-04-25T00:45:27.831Z,83.30
2023-04-25T00:47:55.338Z,83.10
2023-04-25T00:50:21.989Z,82.90
2023-04-25T00:52:48.727Z,83.20
2023-04-25T00:55:16.714Z,83.20
2023-04-25T00:57:44.083Z,82.90
2023-04-25T01:00:12.065Z,82.80
2023-04-25T01:02:39.052Z,82.80
2023-04-25T01:05:06.069Z,82.90
2023-04-25T01:07:32.868Z,82.70
2023-04-25T01:09:59.515Z,82.70
2023-04-25T01:12:26.332Z,82.70
2023-04-25T01:14:53.182Z,82.50
2023-04-25T01:17:20.698Z,82.70
2023-04-25T01:19:49.196Z,82.60
2023-04-25T01:22:16.188Z,82.70
2023-04-25T01:24:42.973Z,82.70
2023-04-25T01:27:10.153Z,82.60
2023-04-25T01:29:37.228Z,82.50
2023-04-25T01:32:04.427Z,82.60
2023-04-25T01:34:31.359Z,82.60
2023-04-25T01:36:59.885Z,82.40
2023-04-25T01:39:26.793Z,82.40
2023-04-25T01:41:53.365Z,82.50
2023-04-25T01:44:19.978Z,82.50
2023-04-25T01:46:46.632Z,82.40
2023-04-25T01:49:13.422Z,82.30
2023-04-25T01:51:40.170Z,82.30
2023-04-25T01:54:06.912Z,82.40
2023-04-25T01:56:34.301Z,82.30
2023-04-25T01:59:01.111Z,82.30
2023-04-25T02:01:27.805Z,82.30
2023-04-25T02:03:55.248Z,82.00
2023-04-25T02:06:22.452Z,81.90
2023-04-25T02:08:49.122Z,81.90
2023-04-25T02:11:15.791Z,81.90
2023-04-25T02:13:42.459Z,81.90
2023-04-25T02:16:09.287Z,82.00
2023-04-25T02:18:38.070Z,82.90
2023-04-25T02:21:04.984Z,82.00
2023-04-25T02:23:31.852Z,81.80
2023-04-25T02:25:58.657Z,81.80
2023-04-25T02:28:26.905Z,82.00
2023-04-25T02:30:54.056Z,82.00
2023-04-25T02:33:21.938Z,82.20
2023-04-25T02:35:48.869Z,82.30
2023-04-25T02:38:15.674Z,82.50
2023-04-25T02:40:42.644Z,82.80
2023-04-25T02:43:09.329Z,82.90
2023-04-25T02:45:36.348Z,82.90
2023-04-25T02:48:04.264Z,83.10
2023-04-25T02:50:30.976Z,83.30
2023-04-25T02:52:57.600Z,83.30
2023-04-25T02:55:26.208Z,83.50
2023-04-25T02:57:56.215Z,83.60
2023-04-25T03:00:23.572Z,83.70
2023-04-25T03:02:50.292Z,83.60
2023-04-25T03:05:17.656Z,83.60
2023-04-25T03:07:45.626Z,83.60
2023-04-25T03:10:12.650Z,83.90
2023-04-25T03:12:39.608Z,83.80
2023-04-25T03:15:06.865Z,83.80
2023-04-25T03:17:33.610Z,84.10
2023-04-25T03:20:00.439Z,83.90
2023-04-25T03:22:27.134Z,84.00
2023-04-25T03:24:53.749Z,84.00
2023-04-25T03:27:20.388Z,84.00
2023-04-25T03:29:47.108Z,83.90
2023-04-25T03:32:13.947Z,84.20
2023-04-25T03:34:41.016Z,84.40
2023-04-25T03:37:07.703Z,84.30
2023-04-25T03:39:34.405Z,84.30
2023-04-25T03:42:01.942Z,84.30
2023-04-25T03:44:28.673Z,84.30
2023-04-25T03:46:55.298Z,83.80
2023-04-25T03:49:21.994Z,83.90
2023-04-25T03:51:48.629Z,84.00
2023-04-25T03:54:15.288Z,84.00
2023-04-25T03:56:41.859Z,85.00
2023-04-25T03:59:08.938Z,83.90
2023-04-25T04:01:36.262Z,83.80
2023-04-25T04:04:03.468Z,84.00
2023-04-25T04:06:30.896Z,83.80
2023-04-25T04:08:57.661Z,83.90
2023-04-25T04:11:24.299Z,83.80
2023-04-25T04:13:51.207Z,83.70
2023-04-25T04:16:18.044Z,83.50
2023-04-25T04:18:45.757Z,83.20
2023-04-25T04:21:12.551Z,83.10
2023-04-25T04:23:39.792Z,83.20
2023-04-25T04:26:08.190Z,83.10
2023-04-25T04:28:34.890Z,83.20
2023-04-25T04:31:02.053Z,83.20
2023-04-25T04:33:29.457Z,83.10
2023-04-25T04:35:56.616Z,83.30
2023-04-25T04:38:23.339Z,83.30
2023-04-25T04:40:50.033Z,83.30
2023-04-25T04:43:18.117Z,83.40
2023-04-25T04:45:45.450Z,83.30
2023-04-25T04:48:14.992Z,83.20
2023-04-25T04:50:42.069Z,83.20
2023-04-25T04:53:08.798Z,83.20
2023-04-25T04:55:35.470Z,83.30
2023-04-25T04:58:02.103Z,83.10
2023-04-25T05:00:30.328Z,83.50
2023-04-25T05:02:57.707Z,83.10
2023-04-25T05:05:24.901Z,82.90
2023-04-25T05:07:51.823Z,83.30
2023-04-25T05:10:19.545Z,83.60
2023-04-25T05:12:46.279Z,83.40
2023-04-25T05:15:13.072Z,83.40
2023-04-25T05:17:40.249Z,83.30
2023-04-25T05:20:10.620Z,83.50
2023-04-25T05:22:37.340Z,83.20
2023-04-25T05:25:04.648Z,83.00
2023-04-25T05:27:31.388Z,83.00
2023-04-25T05:29:58.180Z,83.20
2023-04-25T05:32:26.154Z,83.20
2023-04-25T05:34:52.997Z,83.30
2023-04-25T05:37:19.690Z,83.30
2023-04-25T05:39:46.358Z,83.40
2023-04-25T05:42:13.054Z,83.20
2023-04-25T05:44:39.831Z,83.20
2023-04-25T05:47:06.740Z,83.20
2023-04-25T05:49:33.441Z,83.00
2023-04-25T05:52:00.127Z,82.70
2023-04-25T05:54:26.795Z,82.70
2023-04-25T05:56:53.408Z,82.60
2023-04-25T05:59:20.196Z,82.00
2023-04-25T06:01:47.702Z,81.80
2023-04-25T06:04:14.499Z,82.10
2023-04-25T06:06:41.405Z,82.00
2023-04-25T06:09:08.002Z,81.90
2023-04-25T06:11:34.637Z,81.70
2023-04-25T06:14:01.652Z,81.30
2023-04-25T06:16:28.415Z,81.00
2023-04-25T06:18:55.177Z,80.70
2023-04-25T06:21:21.813Z,81.80
2023-04-25T06:23:48.509Z,81.20
2023-04-25T06:26:15.583Z,81.40
2023-04-25T06:28:42.246Z,79.80
2023-04-25T06:31:08.940Z,77.20
2023-04-25T06:33:35.604Z,75.30
2023-04-25T06:36:02.291Z,73.40
2023-04-25T06:38:29.014Z,75.40
2023-04-25T06:40:55.656Z,75.20
2023-04-25T06:43:22.311Z,75.30
2023-04-25T06:45:49.029Z,76.50
2023-04-25T06:48:16.504Z,76.30
2023-04-25T06:50:43.206Z,75.40
2023-04-25T06:53:09.903Z,75.10
2023-04-25T06:55:36.613Z,73.90
2023-04-25T06:58:04.248Z,73.00
2023-04-25T07:00:31.331Z,72.50
2023-04-25T07:02:58.523Z,73.00
2023-04-25T07:05:25.830Z,68.80
2023-04-25T07:07:52.483Z,69.40
2023-04-25T07:10:19.131Z,68.80
2023-04-25T07:12:45.838Z,72.10
2023-04-25T07:15:12.624Z,70.80
2023-04-25T07:17:39.574Z,66.70
2023-04-25T07:20:07.080Z,67.60
2023-04-25T07:22:33.938Z,66.00
2023-04-25T07:25:01.283Z,64.20
2023-04-25T07:27:28.573Z,64.60
2023-04-25T07:29:55.229Z,65.50
2023-04-25T07:32:21.910Z,65.90
2023-04-25T07:34:48.631Z,68.00
2023-04-25T07:37:15.982Z,64.30
2023-04-25T07:39:42.920Z,65.10
2023-04-25T07:42:09.584Z,66.00
2023-04-25T07:44:43.267Z,65.70
2023-04-25T07:47:11.285Z,64.30
2023-04-25T07:49:38.574Z,64.60
2023-04-25T07:52:07.056Z,66.20
2023-04-25T07:54:33.709Z,66.40
2023-04-25T07:57:00.814Z,65.60
2023-04-25T07:59:29.819Z,66.00
2023-04-25T08:01:58.222Z,65.10
2023-04-25T08:04:26.142Z,65.60
2023-04-25T08:06:54.563Z,64.50
2023-04-25T08:09:21.599Z,66.00
2023-04-25T08:11:48.612Z,65.90
2023-04-25T08:14:15.371Z,62.30
2023-04-25T08:16:43.140Z,63.70
2023-04-25T08:19:10.389Z,58.30
2023-04-25T08:21:37.028Z,58.60
2023-04-25T08:24:03.817Z,61.40
2023-04-25T08:26:30.523Z,62.10
2023-04-25T08:28:57.192Z,63.00
2023-04-25T08:31:23.883Z,61.90
2023-04-25T08:33:52.893Z,61.20
2023-04-25T08:36:31.619Z,61.00
2023-04-25T08:39:05.172Z,61.40
2023-04-25T08:41:32.646Z,62.50
2023-04-25T08:44:01.321Z,62.20
2023-04-25T08:46:28.837Z,62.10
2023-04-25T08:49:01.873Z,62.40
2023-04-25T08:51:32.835Z,62.80
2023-04-25T08:54:27.992Z,62.80
2023-04-25T08:57:02.744Z,64.20
2023-04-25T08:59:30.525Z,65.30
2023-04-25T09:01:57.813Z,64.60
2023-04-25T09:04:24.501Z,58.70
2023-04-25T09:06:51.451Z,59.60
2023-04-25T09:09:18.121Z,58.60
2023-04-25T09:11:44.790Z,58.50
2023-04-25T09:14:12.772Z,60.20
2023-04-25T09:16:57.980Z,60.50
2023-04-25T09:21:59.006Z,59.10
2023-04-25T09:24:38.756Z,54.80
2023-04-25T09:27:11.423Z,54.00
2023-04-25T09:29:42.934Z,53.90
2023-04-25T09:32:17.073Z,54.90
2023-04-25T09:34:45.946Z,55.30
2023-04-25T09:37:12.942Z,56.80
2023-04-25T09:39:40.662Z,56.20
2023-04-25T09:42:07.309Z,55.40
2023-04-25T09:44:33.973Z,56.80
2023-04-25T09:47:00.701Z,57.40
2023-04-25T09:49:28.653Z,59.00
2023-04-25T09:51:59.196Z,59.80
2023-04-25T09:54:26.690Z,62.10
2023-04-25T09:56:54.896Z,60.80
2023-04-25T09:59:23.711Z,59.50
2023-04-25T10:01:53.572Z,59.10
2023-04-25T10:04:23.796Z,58.10
2023-04-25T10:06:53.258Z,57.60
2023-04-25T10:09:22.246Z,58.80
2023-04-25T10:11:49.153Z,55.50
2023-04-25T10:14:16.985Z,56.60
2023-04-25T10:16:44.130Z,58.70
2023-04-25T10:19:11.929Z,58.00
2023-04-25T10:21:53.580Z,58.70
2023-04-25T10:24:21.511Z,56.40
2023-04-25T10:26:49.336Z,57.40
2023-04-25T10:29:24.810Z,57.20
2023-04-25T10:31:51.748Z,54.10
2023-04-25T10:34:18.999Z,54.50
2023-04-25T10:36:54.219Z,53.70
2023-04-25T10:39:27.597Z,53.60
2023-04-25T10:41:59.559Z,52.70
2023-04-25T10:44:30.925Z,51.70
2023-04-25T10:47:01.559Z,51.30
2023-04-25T10:49:32.481Z,51.60
2023-04-25T10:52:17.395Z,52.50
2023-04-25T10:54:54.564Z,52.90
2023-04-25T10:57:43.149Z,52.20
2023-04-25T11:00:25.633Z,52.10
2023-04-25T11:03:00.061Z,48.20
2023-04-25T11:05:33.049Z,50.00
2023-04-25T11:08:07.828Z,51.40
2023-04-25T11:10:38.533Z,52.50
2023-04-25T11:13:05.787Z,53.60
2023-04-25T11:15:32.798Z,53.70
2023-04-25T11:17:59.514Z,52.60
2023-04-25T11:20:29.101Z,52.80
2023-04-25T11:22:59.490Z,54.40
2023-04-25T11:25:26.944Z,53.00
2023-04-25T11:28:00.815Z,53.70
2023-04-25T11:30:27.878Z,53.70
2023-04-25T11:32:54.842Z,53.30
2023-04-25T11:35:23.999Z,52.60
2023-04-25T11:37:51.144Z,53.40
2023-04-25T11:40:17.897Z,52.50
2023-04-25T11:42:46.854Z,48.60
2023-04-25T11:45:14.670Z,49.20
2023-04-25T11:47:41.473Z,50.00
2023-04-25T11:50:09.479Z,49.10
2023-04-25T11:52:46.721Z,51.00
2023-04-25T11:55:21.157Z,50.10
2023-04-25T11:57:51.028Z,53.00
2023-04-25T12:00:21.488Z,52.20
2023-04-25T12:02:52.309Z,51.40
2023-04-25T12:05:31.256Z,51.30
2023-04-25T12:08:11.424Z,53.30
2023-04-25T12:10:40.814Z,53.70
2023-04-25T12:13:25.307Z,55.40
2023-04-25T12:15:52.785Z,54.60
2023-04-25T12:18:24.961Z,54.20
2023-04-25T12:20:53.262Z,51.80
2023-04-25T12:23:27.545Z,53.70
2023-04-25T12:25:54.257Z,55.30
2023-04-25T12:28:28.539Z,53.10
2023-04-25T12:30:56.250Z,52.90
2023-04-25T12:33:27.842Z,54.30
2023-04-25T12:35:55.449Z,53.70
2023-04-25T12:38:27.127Z,52.50
2023-04-25T12:40:54.633Z,53.30
2023-04-25T12:43:22.666Z,53.20
2023-04-25T12:45:53.462Z,52.00
2023-04-25T12:48:21.475Z,50.70
2023-04-25T12:50:50.039Z,52.00
2023-04-25T12:53:20.821Z,50.20
2023-04-25T12:55:48.058Z,47.80
2023-04-25T12:58:15.816Z,46.80
2023-04-25T13:00:43.042Z,47.60
2023-04-25T13:03:11.700Z,48.70
2023-04-25T13:05:39.251Z,50.30
2023-04-25T13:08:06.158Z,48.20
2023-04-25T13:10:34.738Z,49.10
2023-04-25T13:13:01.983Z,50.60
2023-04-25T13:15:28.809Z,49.60
2023-04-25T13:17:56.349Z,50.10
2023-04-25T13:20:23.409Z,49.90
2023-04-25T13:22:50.085Z,48.20
2023-04-25T13:25:17.479Z,48.50
2023-04-25T13:27:45.245Z,48.80
2023-04-25T13:30:12.431Z,47.70
2023-04-25T13:32:39.231Z,47.10
2023-04-25T13:35:10.482Z,47.80
2023-04-25T13:37:37.937Z,44.80
2023-04-25T13:40:10.166Z,45.50
2023-04-25T13:42:37.694Z,44.20
2023-04-25T13:45:04.716Z,45.50
2023-04-25T13:47:31.971Z,45.50
2023-04-25T13:49:58.695Z,47.10
2023-04-25T13:52:25.424Z,45.60
2023-04-25T13:54:52.165Z,47.10
2023-04-25T13:57:19.199Z,46.60
2023-04-25T13:59:46.634Z,45.90
2023-04-25T14:02:14.076Z,44.90
2023-04-25T14:04:41.383Z,46.30
2023-04-25T14:07:08.045Z,47.50
2023-04-25T14:09:35.278Z,45.90
2023-04-25T14:12:02.971Z,46.90
2023-04-25T14:14:29.764Z,47.60
2023-04-25T14:16:58.063Z,47.80
2023-04-25T14:19:25.447Z,47.90
2023-04-25T14:21:52.285Z,48.20
2023-04-25T14:24:18.928Z,49.80
2023-04-25T14:26:45.699Z,49.60
2023-04-25T14:29:12.923Z,49.20
2023-04-25T14:31:41.057Z,49.70
2023-04-25T14:34:08.331Z,48.80
2023-04-25T14:36:36.527Z,50.60
2023-04-25T14:39:03.995Z,50.60
2023-04-25T14:41:30.693Z,50.70
2023-04-25T14:43:57.897Z,50.40
2023-04-25T14:46:24.735Z,50.00
2023-04-25T14:48:51.961Z,49.10
2023-04-25T14:51:18.680Z,47.90
2023-04-25T14:53:45.511Z,47.10
2023-04-25T14:56:12.464Z,46.40
2023-04-25T14:58:41.309Z,45.70
2023-04-25T15:01:09.074Z,43.70
2023-04-25T15:03:36.239Z,44.00
2023-04-25T15:06:03.137Z,44.40
2023-04-25T15:08:29.877Z,43.70
2023-04-25T15:10:56.908Z,44.80
2023-04-25T15:13:23.591Z,45.40
2023-04-25T15:15:52.219Z,46.50
2023-04-25T15:18:22.851Z,48.00
2023-04-25T15:20:53.553Z,49.70
2023-04-25T15:23:21.398Z,49.80
2023-04-25T15:25:48.452Z,49.30
2023-04-25T15:28:16.810Z,49.60
2023-04-25T15:30:44.301Z,49.70
2023-04-25T15:33:11.285Z,49.00
2023-04-25T15:35:38.319Z,48.90
2023-04-25T15:38:05.315Z,48.50
2023-04-25T15:40:32.127Z,49.10
2023-04-25T15:42:59.611Z,47.80
2023-04-25T15:45:26.931Z,47.90
2023-04-25T15:47:56.988Z,48.80
2023-04-25T15:50:24.473Z,48.80
2023-04-25T15:52:51.741Z,49.00
2023-04-25T15:55:20.887Z,50.10
2023-04-25T15:57:51.066Z,50.80
2023-04-25T16:00:19.212Z,50.90
2023-04-25T16:02:48.232Z,51.10
2023-04-25T16:05:15.673Z,50.40
2023-04-25T16:07:43.976Z,51.10
2023-04-25T16:10:11.649Z,53.30
2023-04-25T16:12:42.181Z,52.50
2023-04-25T16:15:09.296Z,54.00
2023-04-25T16:17:36.115Z,54.30
2023-04-25T16:20:09.437Z,54.70
2023-04-25T16:22:41.036Z,54.60
2023-04-25T16:25:08.765Z,55.10
2023-04-25T16:27:36.272Z,54.20
2023-04-25T16:30:03.636Z,54.40
2023-04-25T16:32:30.802Z,54.30
2023-04-25T16:34:58.914Z,54.30
2023-04-25T16:37:25.875Z,54.20
2023-04-25T16:39:52.633Z,53.70
2023-04-25T16:42:19.441Z,54.40
2023-04-25T16:44:46.119Z,51.40
2023-04-25T16:47:15.720Z,52.80
2023-04-25T16:49:44.746Z,52.80
2023-04-25T16:52:12.538Z,52.20
2023-04-25T16:54:39.210Z,52.40
2023-04-25T16:57:06.930Z,53.40
2023-04-25T16:59:33.575Z,52.90
2023-04-25T17:02:00.257Z,53.00
2023-04-25T17:04:27.196Z,52.70
2023-04-25T17:06:54.178Z,52.70
2023-04-25T17:09:21.439Z,53.40
2023-04-25T17:11:48.493Z,53.20
2023-04-25T17:14:15.323Z,53.00
2023-04-25T17:16:42.002Z,53.20
2023-04-25T17:19:08.849Z,54.30
2023-04-25T17:21:35.528Z,53.90
2023-04-25T17:24:05.888Z,53.30
2023-04-25T17:26:32.736Z,54.10
2023-04-25T17:28:59.509Z,54.00
2023-04-25T17:31:26.929Z,53.70
2023-04-25T17:33:53.552Z,53.40
2023-04-25T17:36:21.341Z,52.80
2023-04-25T17:38:47.973Z,53.40
2023-04-25T17:41:15.113Z,53.40
2023-04-25T17:43:41.918Z,54.30
2023-04-25T17:46:08.613Z,54.30
2023-04-25T17:48:35.390Z,54.00
2023-04-25T17:51:02.681Z,53.90
2023-04-25T17:53:30.789Z,54.00
2023-04-25T17:55:57.544Z,53.80
2023-04-25T17:58:24.444Z,53.80
2023-04-25T18:00:51.383Z,54.00
2023-04-25T18:03:18.239Z,54.00
2023-04-25T18:05:45.020Z,54.90
2023-04-25T18:08:11.778Z,56.30
2023-04-25T18:10:39.011Z,55.70
2023-04-25T18:13:06.419Z,56.00
2023-04-25T18:15:33.054Z,55.80
2023-04-25T18:17:59.881Z,55.90
2023-04-25T18:20:28.481Z,55.90
2023-04-25T18:22:55.155Z,56.00
2023-04-25T18:25:21.986Z,55.50
2023-04-25T18:27:50.479Z,56.40
2023-04-25T18:30:17.120Z,56.30
2023-04-25T18:32:43.883Z,56.20
2023-04-25T18:35:11.137Z,56.80
2023-04-25T18:37:39.634Z,56.50
2023-04-25T18:40:09.987Z,56.80
2023-04-25T18:42:37.926Z,57.30
2023-04-25T18:45:05.598Z,56.80
2023-04-25T18:47:32.539Z,56.80
2023-04-25T18:49:59.272Z,56.60
2023-04-25T18:52:26.256Z,56.90
2023-04-25T18:54:53.505Z,57.00
2023-04-25T18:57:20.786Z,57.80
2023-04-25T18:59:47.904Z,57.20
2023-04-25T19:02:16.136Z,57.40
2023-04-25T19:04:43.474Z,57.30
2023-04-25T19:07:10.227Z,57.30
2023-04-25T19:09:36.925Z,57.40
2023-04-25T19:12:03.812Z,57.60
2023-04-25T19:14:34.688Z,57.70
2023-04-25T19:17:01.525Z,57.80
2023-04-25T19:19:28.407Z,58.00
2023-04-25T19:21:55.104Z,58.30
2023-04-25T19:24:22.168Z,58.50
2023-04-25T19:26:48.921Z,58.40
2023-04-25T19:29:16.040Z,58.70
2023-04-25T19:31:45.007Z,58.80
2023-04-25T19:34:12.865Z,58.70
2023-04-25T19:36:42.179Z,58.70
2023-04-25T19:39:09.013Z,58.90
2023-04-25T19:41:37.249Z,59.00
2023-04-25T19:44:06.934Z,59.20
2023-04-25T19:46:34.856Z,59.40
2023-04-25T19:49:03.133Z,59.50
2023-04-25T19:51:31.642Z,59.60
2023-04-25T19:53:58.354Z,59.80
2023-04-25T19:56:26.329Z,59.90
2023-04-25T19:58:53.362Z,60.10
2023-04-25T20:01:22.225Z,60.30
2023-04-25T20:03:51.771Z,60.50
2023-04-25T20:06:18.889Z,60.50
2023-04-25T20:08:46.996Z,60.70
2023-04-25T20:11:13.725Z,60.80
2023-04-25T20:13:40.475Z,60.90
2023-04-25T20:16:07.735Z,61.00
2023-04-25T20:18:34.852Z,61.20
2023-04-25T20:21:02.150Z,61.70
2023-04-25T20:23:28.865Z,61.60
2023-04-25T20:25:55.748Z,61.70
2023-04-25T20:28:23.118Z,61.80
2023-04-25T20:30:50.669Z,62.30
2023-04-25T20:33:17.333Z,62.40
2023-04-25T20:35:44.149Z,62.40
2023-04-25T20:38:11.637Z,62.30
2023-04-25T20:40:38.448Z,62.40
2023-04-25T20:43:05.324Z,62.40
2023-04-25T20:45:34.278Z,62.60
2023-04-25T20:48:02.509Z,62.70
2023-04-25T20:50:29.344Z,63.00
2023-04-25T20:52:56.080Z,62.70
2023-04-25T20:55:22.727Z,62.60
2023-04-25T20:57:49.477Z,62.70
2023-04-25T21:00:18.482Z,62.80
2023-04-25T21:02:46.607Z,62.90
2023-04-25T21:05:13.582Z,62.90
2023-04-25T21:07:40.356Z,63.10
2023-04-25T21:10:07.313Z,63.30
2023-04-25T21:12:34.004Z,63.10
2023-04-25T21:15:00.784Z,63.50
2023-04-25T21:17:27.540Z,63.60
2023-04-25T21:19:54.337Z,63.80
2023-04-25T21:22:21.579Z,63.70
2023-04-25T21:24:50.620Z,63.90
2023-04-25T21:27:20.518Z,64.20
2023-04-25T21:29:47.176Z,64.30
2023-04-25T21:32:16.796Z,64.40
2023-04-25T21:34:43.662Z,64.90
2023-04-25T21:37:10.754Z,65.20
2023-04-25T21:39:37.495Z,65.20
2023-04-25T21:42:07.245Z,65.40
2023-04-25T21:44:34.066Z,65.60
2023-04-25T21:47:00.700Z,65.90
2023-04-25T21:49:29.449Z,65.90
2023-04-25T21:51:56.892Z,65.90
2023-04-25T21:54:23.572Z,66.10
2023-04-25T21:56:51.239Z,66.40
2023-04-25T21:59:17.924Z,66.60
2023-04-25T22:01:45.389Z,66.60
2023-04-25T22:04:12.427Z,66.50
2023-04-25T22:06:39.261Z,66.50
2023-04-25T22:09:05.916Z,66.50
2023-04-25T22:11:32.712Z,66.80
2023-04-25T22:13:59.615Z,66.90
2023-04-25T22:16:26.298Z,67.10
2023-04-25T22:18:53.264Z,67.10
2023-04-25T22:21:20.760Z,67.10
2023-04-25T22:23:47.513Z,67.10
2023-04-25T22:26:14.360Z,66.80
2023-04-25T22:28:41.427Z,67.50
2023-04-25T22:31:08.504Z,67.60
2023-04-25T22:33:35.862Z,67.60
2023-04-25T22:36:03.208Z,67.80
2023-04-25T22:38:30.378Z,68.30
2023-04-25T22:40:56.978Z,68.30
2023-04-25T22:43:24.020Z,68.50
2023-04-25T22:45:50.818Z,68.60
2023-04-25T22:48:17.513Z,68.70
2023-04-25T22:50:45.484Z,68.50
2023-04-25T22:53:12.707Z,68.70
2023-04-25T22:55:39.826Z,69.00
2023-04-25T22:58:09.984Z,69.10
2023-04-25T23:00:37.697Z,69.40
2023-04-25T23:03:04.893Z,69.40
2023-04-25T23:05:32.803Z,69.40
2023-04-25T23:07:59.790Z,69.80
2023-04-25T23:10:28.199Z,70.20
2023-04-25T23:12:57.942Z,70.10
2023-04-25T23:15:27.348Z,70.20
2023-04-25T23:17:54.020Z,70.30
2023-04-25T23:20:21.025Z,70.40
2023-04-25T23:22:47.921Z,70.30
2023-04-25T23:25:14.963Z,70.50
2023-04-25T23:27:41.730Z,70.70
2023-04-25T23:30:10.014Z,70.50
2023-04-25T23:32:37.757Z,70.60
2023-04-25T23:35:05.395Z,70.70
2023-04-25T23:37:38.367Z,70.80
2023-04-25T23:40:12.647Z,70.90
2023-04-25T23:42:41.039Z,71.00
2023-04-25T23:45:09.096Z,71.50
2023-04-25T23:47:36.582Z,71.20
2023-04-25T23:50:03.966Z,71.50
2023-04-25T23:52:30.754Z,71.50
2023-04-25T23:54:57.483Z,71.50
2023-04-25T23:57:24.195Z,71.40
2023-04-25T23:59:50.873Z,71.30
